createdAt,value
2019-02-16T00:01:50.506Z,28.20
2019-02-16T00:04:20.969Z,28.20
2019-02-16T00:06:49.057Z,28.20
2019-02-16T00:09:16.722Z,28.20
2019-02-16T00:11:44.326Z,28.20
2019-02-16T00:14:11.960Z,28.20
2019-02-16T00:16:39.546Z,28.20
2019-02-16T00:19:07.192Z,28.20
2019-02-16T00:21:34.773Z,28.20
2019-02-16T00:24:02.385Z,28.30
2019-02-16T00:26:30.108Z,28.30
2019-02-16T00:28:57.713Z,28.20
2019-02-16T00:31:25.384Z,28.20
2019-02-16T00:33:53.119Z,28.20
2019-02-16T00:36:20.815Z,28.20
2019-02-16T00:38:48.482Z,28.20
2019-02-16T00:41:16.653Z,28.20
2019-02-16T00:43:44.511Z,28.20
2019-02-16T00:46:14.998Z,28.10
2019-02-16T00:48:42.746Z,28.20
2019-02-16T00:51:13.659Z,28.20
2019-02-16T00:53:40.040Z,28.20
2019-02-16T00:56:07.818Z,28.20
2019-02-16T00:58:35.476Z,28.20
2019-02-16T01:01:03.084Z,28.30
2019-02-16T01:03:30.792Z,28.20
2019-02-16T01:05:58.395Z,28.20
2019-02-16T01:08:26.114Z,28.20
2019-02-16T01:10:53.774Z,28.20
2019-02-16T01:13:21.375Z,28.20
2019-02-16T01:15:48.996Z,28.20
2019-02-16T01:18:16.617Z,28.20
2019-02-16T01:20:44.220Z,28.20
2019-02-16T01:23:11.875Z,28.20
2019-02-16T01:25:39.492Z,28.20
2019-02-16T01:28:07.102Z,28.20
2019-02-16T01:30:34.786Z,28.20
2019-02-16T01:33:02.532Z,28.20
2019-02-16T01:35:30.188Z,28.20
2019-02-16T01:37:57.794Z,28.20
2019-02-16T01:40:25.450Z,28.20
2019-02-16T01:42:53.126Z,28.20
2019-02-16T01:45:20.744Z,28.20
2019-02-16T01:47:48.448Z,28.20
2019-02-16T01:50:16.047Z,28.20
2019-02-16T01:52:43.714Z,28.20
2019-02-16T01:55:11.342Z,28.30
2019-02-16T01:57:38.942Z,28.20
2019-02-16T02:00:07.568Z,28.20
2019-02-16T02:02:35.291Z,28.20
2019-02-16T02:05:03.074Z,28.20
2019-02-16T02:07:30.695Z,28.20
2019-02-16T02:09:58.401Z,28.20
2019-02-16T02:12:26.010Z,28.20
2019-02-16T02:14:53.626Z,28.20
2019-02-16T02:17:21.278Z,28.20
2019-02-16T02:19:48.888Z,28.30
2019-02-16T02:22:16.494Z,28.20
2019-02-16T02:24:44.158Z,28.20
2019-02-16T02:27:11.796Z,28.20
2019-02-16T02:29:39.371Z,28.20
2019-02-16T02:32:07.058Z,28.20
2019-02-16T02:34:34.726Z,28.20
2019-02-16T02:37:02.437Z,28.20
2019-02-16T02:39:30.198Z,28.20
2019-02-16T02:41:57.828Z,28.20
2019-02-16T02:44:25.437Z,28.10
2019-02-16T02:46:53.212Z,28.20
2019-02-16T02:49:20.892Z,28.20
2019-02-16T02:51:52.340Z,28.20
2019-02-16T02:54:17.894Z,28.20
2019-02-16T02:56:45.664Z,28.10
2019-02-16T02:59:13.277Z,28.10
2019-02-16T03:01:40.928Z,28.20
2019-02-16T03:04:08.653Z,28.10
2019-02-16T03:06:36.255Z,28.10
2019-02-16T03:09:04.732Z,28.10
2019-02-16T03:11:32.414Z,28.10
2019-02-16T03:14:00.018Z,28.10
2019-02-16T03:16:27.839Z,28.10
2019-02-16T03:18:58.177Z,28.10
2019-02-16T03:21:25.783Z,28.10
2019-02-16T03:23:53.421Z,28.10
2019-02-16T03:26:31.804Z,28.10
2019-02-16T03:29:01.126Z,28.10
2019-02-16T03:31:46.643Z,28.10
2019-02-16T03:34:16.125Z,28.10
2019-02-16T03:36:57.218Z,28.10
2019-02-16T03:39:24.922Z,28.10
2019-02-16T03:41:52.500Z,28.10
2019-02-16T03:44:20.144Z,28.10
2019-02-16T03:46:47.879Z,28.10
2019-02-16T03:49:15.478Z,28.10
2019-02-16T03:51:43.128Z,28.10
2019-02-16T03:54:10.790Z,28.10
2019-02-16T03:56:38.449Z,28.10
2019-02-16T03:59:06.062Z,28.10
2019-02-16T04:01:33.718Z,28.10
2019-02-16T04:04:03.016Z,28.10
2019-02-16T04:06:30.763Z,28.10
2019-02-16T04:08:58.463Z,28.10
2019-02-16T04:11:26.087Z,28.10
2019-02-16T04:13:53.720Z,28.10
2019-02-16T04:16:21.300Z,28.10
2019-02-16T04:18:48.933Z,28.10
2019-02-16T04:21:16.555Z,28.10
2019-02-16T04:23:44.125Z,28.10
2019-02-16T04:26:11.768Z,28.10
2019-02-16T04:28:39.412Z,28.10
2019-02-16T04:31:07.057Z,28.10
2019-02-16T04:33:34.761Z,28.10
2019-02-16T04:36:02.357Z,28.10
2019-02-16T04:38:29.975Z,28.10
2019-02-16T04:40:57.697Z,28.10
2019-02-16T04:43:25.329Z,28.00
2019-02-16T04:45:52.937Z,28.10
2019-02-16T04:48:20.579Z,28.10
2019-02-16T04:50:48.227Z,28.10
2019-02-16T04:53:15.813Z,28.10
2019-02-16T04:55:43.482Z,28.10
2019-02-16T04:58:11.161Z,28.10
2019-02-16T05:00:38.838Z,28.10
2019-02-16T05:03:06.529Z,28.10
2019-02-16T05:05:34.188Z,28.10
2019-02-16T05:08:01.863Z,28.10
2019-02-16T05:10:29.513Z,28.10
2019-02-16T05:12:57.115Z,28.10
2019-02-16T05:15:24.776Z,28.10
2019-02-16T05:17:52.449Z,28.10
2019-02-16T05:20:20.109Z,28.10
2019-02-16T05:22:47.718Z,28.10
2019-02-16T05:25:15.431Z,28.10
2019-02-16T05:27:43.107Z,28.10
2019-02-16T05:30:10.692Z,28.10
2019-02-16T05:32:38.385Z,28.10
2019-02-16T05:35:05.975Z,28.10
2019-02-16T05:37:33.645Z,28.10
2019-02-16T05:40:01.338Z,28.10
2019-02-16T05:42:28.976Z,28.10
2019-02-16T05:44:56.577Z,28.10
2019-02-16T05:47:24.313Z,28.10
2019-02-16T05:49:51.955Z,28.10
2019-02-16T05:52:19.599Z,28.10
2019-02-16T05:54:47.309Z,28.10
2019-02-16T05:57:15.024Z,28.10
2019-02-16T05:59:42.701Z,28.10
2019-02-16T06:02:10.366Z,28.00
2019-02-16T06:04:38.096Z,28.00
2019-02-16T06:07:05.683Z,28.00
2019-02-16T06:09:33.320Z,28.10
2019-02-16T06:12:00.965Z,28.10
2019-02-16T06:14:28.608Z,28.10
2019-02-16T06:16:56.349Z,28.00
2019-02-16T06:19:24.008Z,28.10
2019-02-16T06:21:51.660Z,28.10
2019-02-16T06:24:19.296Z,28.10
2019-02-16T06:26:47.135Z,28.10
2019-02-16T06:29:14.912Z,28.20
2019-02-16T06:31:42.515Z,28.20
2019-02-16T06:34:10.101Z,28.30
2019-02-16T06:36:37.973Z,30.10
2019-02-16T06:39:05.680Z,30.00
2019-02-16T06:41:33.407Z,31.20
2019-02-16T06:44:06.655Z,30.80
2019-02-16T06:46:34.291Z,29.80
2019-02-16T06:49:01.894Z,28.80
2019-02-16T06:51:29.563Z,28.50
2019-02-16T06:53:57.343Z,28.90
2019-02-16T06:56:29.295Z,29.00
2019-02-16T06:58:56.896Z,28.70
2019-02-16T07:01:24.532Z,29.60
2019-02-16T07:03:52.116Z,29.80
2019-02-16T07:06:19.798Z,29.10
2019-02-16T07:08:47.727Z,29.10
2019-02-16T07:11:15.356Z,29.40
2019-02-16T07:13:43.070Z,29.60
2019-02-16T07:16:27.416Z,29.60
2019-02-16T07:18:56.696Z,29.50
2019-02-16T07:21:24.298Z,29.60
2019-02-16T07:23:51.965Z,29.30
2019-02-16T07:26:19.563Z,29.40
2019-02-16T07:28:47.206Z,28.70
2019-02-16T07:31:15.897Z,28.70
2019-02-16T07:33:43.671Z,28.70
2019-02-16T07:36:11.350Z,28.70
2019-02-16T07:38:39.044Z,28.60
2019-02-16T07:41:06.654Z,28.60
2019-02-16T07:43:35.893Z,28.60
2019-02-16T07:46:05.271Z,28.50
2019-02-16T07:48:34.627Z,28.60
2019-02-16T07:51:12.976Z,28.70
2019-02-16T07:53:42.184Z,28.60
2019-02-16T07:56:17.581Z,28.60
2019-02-16T07:58:52.911Z,28.50
2019-02-16T08:01:28.187Z,29.70
2019-02-16T08:03:59.890Z,31.30
2019-02-16T08:06:45.310Z,30.30
2019-02-16T08:09:14.524Z,30.30
2019-02-16T08:11:58.958Z,30.60
2019-02-16T08:14:31.225Z,30.20
2019-02-16T08:17:12.308Z,30.00
2019-02-16T08:19:44.604Z,30.20
2019-02-16T08:22:19.900Z,30.10
2019-02-16T08:24:49.186Z,29.20
2019-02-16T08:27:24.131Z,28.60
2019-02-16T08:29:53.536Z,28.60
2019-02-16T08:32:22.883Z,28.60
2019-02-16T08:34:55.050Z,28.60
2019-02-16T08:37:33.324Z,29.10
2019-02-16T08:40:08.040Z,28.50
2019-02-16T08:42:40.268Z,28.60
2019-02-16T08:45:12.270Z,28.50
2019-02-16T08:47:41.506Z,28.60
2019-02-16T08:50:29.546Z,28.50
2019-02-16T08:52:58.900Z,28.50
2019-02-16T08:55:28.210Z,28.50
2019-02-16T08:58:03.263Z,28.50
2019-02-16T09:00:35.030Z,28.50
2019-02-16T09:03:22.491Z,28.50
2019-02-16T09:05:54.470Z,28.50
2019-02-16T09:08:23.764Z,28.50
2019-02-16T09:11:04.918Z,28.60
2019-02-16T09:13:36.950Z,28.50
2019-02-16T09:16:08.880Z,28.50
2019-02-16T09:18:46.987Z,28.50
2019-02-16T09:21:21.776Z,28.50
2019-02-16T09:23:59.884Z,28.50
2019-02-16T09:26:31.902Z,28.50
2019-02-16T09:29:03.744Z,28.50
2019-02-16T09:31:50.809Z,28.50
2019-02-16T09:34:20.143Z,28.50
2019-02-16T09:36:51.970Z,28.50
2019-02-16T09:39:21.201Z,28.50
2019-02-16T09:41:56.530Z,28.50
2019-02-16T09:44:25.855Z,28.50
2019-02-16T09:47:00.949Z,28.50
2019-02-16T09:49:30.189Z,28.50
2019-02-16T09:52:11.130Z,28.50
2019-02-16T09:54:49.219Z,28.50
2019-02-16T09:57:34.796Z,28.50
2019-02-16T10:00:06.754Z,28.50
2019-02-16T10:02:41.851Z,28.50
2019-02-16T10:05:23.142Z,28.50
2019-02-16T10:08:08.376Z,28.50
2019-02-16T10:10:37.705Z,28.50
2019-02-16T10:13:21.848Z,28.50
2019-02-16T10:15:56.747Z,28.40
2019-02-16T10:18:28.954Z,28.50
2019-02-16T10:21:03.975Z,28.50
2019-02-16T10:23:42.356Z,28.40
2019-02-16T10:26:26.484Z,28.40
2019-02-16T10:28:55.788Z,28.40
2019-02-16T10:31:43.396Z,28.40
2019-02-16T10:34:24.623Z,28.40
2019-02-16T10:36:56.871Z,28.40
2019-02-16T10:39:31.761Z,28.40
2019-02-16T10:42:06.865Z,28.40
2019-02-16T10:44:36.155Z,28.40
2019-02-16T10:47:05.467Z,28.40
2019-02-16T10:49:34.775Z,28.40
2019-02-16T10:52:20.399Z,28.40
2019-02-16T10:55:06.157Z,28.40
2019-02-16T10:57:35.463Z,28.40
2019-02-16T11:00:08.307Z,28.30
2019-02-16T11:02:37.595Z,28.40
2019-02-16T11:05:07.087Z,28.90
2019-02-16T11:07:36.405Z,28.40
2019-02-16T11:10:07.351Z,28.30
2019-02-16T11:12:36.670Z,28.40
2019-02-16T11:15:10.063Z,28.30
2019-02-16T11:17:48.125Z,28.40
2019-02-16T11:20:26.540Z,28.30
2019-02-16T11:23:04.902Z,28.30
2019-02-16T11:25:34.204Z,28.20
2019-02-16T11:28:15.303Z,28.30
2019-02-16T11:30:56.765Z,28.20
2019-02-16T11:33:40.807Z,28.30
2019-02-16T11:36:10.104Z,28.20
2019-02-16T11:38:41.852Z,28.30
2019-02-16T11:41:18.981Z,28.20
2019-02-16T11:43:44.985Z,28.20
2019-02-16T11:46:14.219Z,28.20
2019-02-16T11:48:46.538Z,28.20
2019-02-16T11:51:15.849Z,28.20
2019-02-16T11:53:45.095Z,28.20
2019-02-16T11:56:14.410Z,28.20
2019-02-16T11:58:46.556Z,28.20
2019-02-16T12:01:24.730Z,28.20
2019-02-16T12:03:53.961Z,28.20
2019-02-16T12:06:26.207Z,28.20
2019-02-16T12:09:04.196Z,28.20
2019-02-16T12:11:33.433Z,28.10
2019-02-16T12:14:08.594Z,28.20
2019-02-16T12:16:40.926Z,27.90
2019-02-16T12:19:13.195Z,28.00
2019-02-16T12:21:44.863Z,27.90
2019-02-16T12:24:14.216Z,27.90
2019-02-16T12:26:43.466Z,27.80
2019-02-16T12:29:24.612Z,27.60
2019-02-16T12:31:53.918Z,27.70
2019-02-16T12:34:23.218Z,27.70
2019-02-16T12:37:04.635Z,27.60
2019-02-16T12:39:36.953Z,27.70
2019-02-16T12:42:24.348Z,27.70
2019-02-16T12:44:53.744Z,27.60
2019-02-16T12:47:37.963Z,27.60
2019-02-16T12:50:09.892Z,27.50
2019-02-16T12:52:57.248Z,27.50
2019-02-16T12:55:35.562Z,27.50
2019-02-16T12:58:07.765Z,27.40
2019-02-16T13:00:39.808Z,27.30
2019-02-16T13:03:21.003Z,27.50
2019-02-16T13:06:05.167Z,27.40
2019-02-16T13:08:42.906Z,27.20
2019-02-16T13:11:12.184Z,27.20
2019-02-16T13:13:47.142Z,27.30
2019-02-16T13:16:25.476Z,27.20
2019-02-16T13:19:00.717Z,27.20
2019-02-16T13:21:38.793Z,27.10
2019-02-16T13:24:13.576Z,27.10
2019-02-16T13:26:42.852Z,27.00
2019-02-16T13:29:28.222Z,27.10
2019-02-16T13:31:57.540Z,27.10
2019-02-16T13:34:32.586Z,27.10
2019-02-16T13:37:17.043Z,27.00
2019-02-16T13:39:58.026Z,27.00
2019-02-16T13:42:33.122Z,26.90
2019-02-16T13:45:02.372Z,26.80
2019-02-16T13:47:31.694Z,26.80
2019-02-16T13:50:01.016Z,26.80
2019-02-16T13:52:30.293Z,26.60
2019-02-16T13:55:02.258Z,26.70
2019-02-16T13:57:46.637Z,26.60
2019-02-16T14:00:30.542Z,26.60
2019-02-16T14:02:59.842Z,26.60
2019-02-16T14:05:29.070Z,26.50
2019-02-16T14:07:58.308Z,26.50
2019-02-16T14:10:30.561Z,26.50
2019-02-16T14:12:59.786Z,26.50
2019-02-16T14:15:44.119Z,26.50
2019-02-16T14:18:11.789Z,26.60
2019-02-16T14:20:39.458Z,26.50
2019-02-16T14:23:07.048Z,26.60
2019-02-16T14:25:42.802Z,26.50
2019-02-16T14:28:05.670Z,26.60
2019-02-16T14:30:33.366Z,26.60
2019-02-16T14:33:00.995Z,26.50
2019-02-16T14:35:28.602Z,26.40
2019-02-16T14:37:57.813Z,26.40
2019-02-16T14:40:27.131Z,26.40
2019-02-16T14:42:54.712Z,26.50
2019-02-16T14:45:22.324Z,26.40
2019-02-16T14:47:50.056Z,26.50
2019-02-16T14:50:17.653Z,26.40
2019-02-16T14:52:45.337Z,26.40
2019-02-16T14:55:14.057Z,26.40
2019-02-16T14:57:41.668Z,26.40
2019-02-16T15:00:10.446Z,26.40
2019-02-16T15:02:38.124Z,26.50
2019-02-16T15:05:06.429Z,26.40
2019-02-16T15:07:34.078Z,26.40
2019-02-16T15:10:01.696Z,26.40
2019-02-16T15:12:29.362Z,26.40
2019-02-16T15:14:57.049Z,26.50
2019-02-16T15:17:24.640Z,27.00
2019-02-16T15:19:52.295Z,26.50
2019-02-16T15:22:19.923Z,26.40
2019-02-16T15:24:47.617Z,26.40
2019-02-16T15:27:15.271Z,26.50
2019-02-16T15:29:42.853Z,26.40
2019-02-16T15:32:10.429Z,26.40
2019-02-16T15:34:38.098Z,26.30
2019-02-16T15:37:05.693Z,26.30
2019-02-16T15:39:33.353Z,26.30
2019-02-16T15:42:02.898Z,26.30
2019-02-16T15:44:30.300Z,26.30
2019-02-16T15:46:57.985Z,26.20
2019-02-16T15:49:25.650Z,26.20
2019-02-16T15:51:53.232Z,26.20
2019-02-16T15:54:20.876Z,26.20
2019-02-16T15:56:48.512Z,26.20
2019-02-16T15:59:16.116Z,26.30
2019-02-16T16:01:43.882Z,26.20
2019-02-16T16:04:11.631Z,26.20
2019-02-16T16:06:39.286Z,26.20
2019-02-16T16:09:14.651Z,26.20
2019-02-16T16:11:43.882Z,26.20
2019-02-16T16:14:16.059Z,26.20
2019-02-16T16:16:51.136Z,26.20
2019-02-16T16:19:29.320Z,26.20
2019-02-16T16:22:04.566Z,26.10
2019-02-16T16:24:45.595Z,26.10
2019-02-16T16:27:31.251Z,26.10
2019-02-16T16:30:06.568Z,26.10
2019-02-16T16:32:52.391Z,26.10
2019-02-16T16:35:30.462Z,26.10
2019-02-16T16:38:02.688Z,26.10
2019-02-16T16:40:34.677Z,26.20
2019-02-16T16:43:04.447Z,26.10
2019-02-16T16:45:49.683Z,26.10
2019-02-16T16:48:19.011Z,26.10
2019-02-16T16:50:54.132Z,26.10
2019-02-16T16:53:23.388Z,26.10
2019-02-16T16:55:52.659Z,26.00
2019-02-16T16:58:24.987Z,26.10
2019-02-16T17:01:12.336Z,26.00
2019-02-16T17:03:41.696Z,26.00
2019-02-16T17:06:13.799Z,25.90
2019-02-16T17:08:43.121Z,25.90
2019-02-16T17:11:28.473Z,25.90
2019-02-16T17:14:01.685Z,25.90
2019-02-16T17:16:36.876Z,25.80
2019-02-16T17:19:06.137Z,25.90
2019-02-16T17:21:35.372Z,25.80
2019-02-16T17:24:22.643Z,25.80
2019-02-16T17:27:08.270Z,25.80
2019-02-16T17:29:49.659Z,25.80
2019-02-16T17:32:18.901Z,25.90
2019-02-16T17:34:48.213Z,25.90
2019-02-16T17:37:29.599Z,26.00
2019-02-16T17:40:01.755Z,25.80
2019-02-16T17:42:36.694Z,25.90
2019-02-16T17:45:13.501Z,25.90
2019-02-16T17:47:58.945Z,25.80
2019-02-16T17:50:46.413Z,25.70
2019-02-16T17:53:15.788Z,25.90
2019-02-16T17:55:45.087Z,26.10
2019-02-16T17:58:23.309Z,26.10
2019-02-16T18:00:55.187Z,26.20
2019-02-16T18:03:42.569Z,27.00
2019-02-16T18:06:28.277Z,26.70
2019-02-16T18:08:57.529Z,26.40
2019-02-16T18:11:32.196Z,27.80
2019-02-16T18:14:03.974Z,27.80
2019-02-16T18:16:33.350Z,28.00
2019-02-16T18:19:14.812Z,28.00
2019-02-16T18:21:44.173Z,28.60
2019-02-16T18:24:13.487Z,28.60
2019-02-16T18:26:56.100Z,27.50
2019-02-16T18:29:19.686Z,27.10
2019-02-16T18:31:57.901Z,28.10
2019-02-16T18:34:27.257Z,28.50
2019-02-16T18:36:59.541Z,28.50
2019-02-16T18:39:31.874Z,28.50
2019-02-16T18:42:04.032Z,28.50
2019-02-16T18:44:36.360Z,28.50
2019-02-16T18:47:14.668Z,28.50
2019-02-16T18:49:49.691Z,28.50
2019-02-16T18:52:30.789Z,28.40
2019-02-16T18:55:10.204Z,28.40
2019-02-16T18:57:45.950Z,28.40
2019-02-16T19:00:18.108Z,28.40
2019-02-16T19:02:50.137Z,28.40
2019-02-16T19:05:19.435Z,28.50
2019-02-16T19:07:48.734Z,28.60
2019-02-16T19:10:34.435Z,28.70
2019-02-16T19:13:20.069Z,28.70
2019-02-16T19:15:52.116Z,28.80
2019-02-16T19:18:24.275Z,28.70
2019-02-16T19:21:11.492Z,28.70
2019-02-16T19:23:46.409Z,28.70
2019-02-16T19:26:24.395Z,28.70
2019-02-16T19:29:12.034Z,28.70
2019-02-16T19:31:41.348Z,28.80
2019-02-16T19:34:27.129Z,28.70
2019-02-16T19:37:02.520Z,28.70
2019-02-16T19:39:43.904Z,28.70
2019-02-16T19:42:19.088Z,28.70
2019-02-16T19:44:50.826Z,28.70
2019-02-16T19:47:25.909Z,29.10
2019-02-16T19:49:57.965Z,30.20
2019-02-16T19:52:27.306Z,29.30
2019-02-16T19:54:59.182Z,29.00
2019-02-16T19:57:43.004Z,29.60
2019-02-16T20:00:16.040Z,29.50
2019-02-16T20:02:48.224Z,28.90
2019-02-16T20:05:23.162Z,29.20
2019-02-16T20:07:55.284Z,29.20
2019-02-16T20:10:27.596Z,29.10
2019-02-16T20:12:56.836Z,29.50
2019-02-16T20:15:31.944Z,28.90
2019-02-16T20:18:01.287Z,28.80
2019-02-16T20:20:30.568Z,29.30
2019-02-16T20:23:08.756Z,29.60
2019-02-16T20:25:38.090Z,29.70
2019-02-16T20:28:13.325Z,29.80
2019-02-16T20:30:48.236Z,29.70
2019-02-16T20:33:33.348Z,29.80
2019-02-16T20:36:08.824Z,41.10
2019-02-16T20:38:38.155Z,38.00
2019-02-16T20:41:07.521Z,37.40
2019-02-16T20:43:42.689Z,35.10
2019-02-16T20:46:11.922Z,34.80
2019-02-16T20:48:49.885Z,34.80
2019-02-16T20:51:35.083Z,34.80
2019-02-16T20:54:04.375Z,34.10
2019-02-16T20:56:36.265Z,34.00
2019-02-16T20:59:14.212Z,33.70
2019-02-16T21:01:43.468Z,33.80
2019-02-16T21:04:18.766Z,33.80
2019-02-16T21:06:54.482Z,33.60
2019-02-16T21:09:30.073Z,33.60
2019-02-16T21:11:59.344Z,33.50
2019-02-16T21:14:31.926Z,33.30
2019-02-16T21:17:17.386Z,33.20
2019-02-16T21:19:46.737Z,30.50
2019-02-16T21:22:24.999Z,27.30
2019-02-16T21:25:10.512Z,26.10
2019-02-16T21:27:42.543Z,24.00
2019-02-16T21:30:14.552Z,23.20
2019-02-16T21:32:49.884Z,22.50
2019-02-16T21:35:19.215Z,22.00
2019-02-16T21:37:50.230Z,21.70
2019-02-16T21:40:22.336Z,21.00
2019-02-16T21:42:54.237Z,20.50
2019-02-16T21:45:35.335Z,20.50
2019-02-16T21:48:07.547Z,20.10
2019-02-16T21:50:36.818Z,19.40
2019-02-16T21:53:06.101Z,19.40
2019-02-16T21:55:38.421Z,19.50
2019-02-16T21:58:10.399Z,18.90
2019-02-16T22:00:39.625Z,18.80
2019-02-16T22:03:25.057Z,19.20
2019-02-16T22:06:09.267Z,18.50
2019-02-16T22:08:53.419Z,18.70
2019-02-16T22:11:22.689Z,18.50
2019-02-16T22:13:50.320Z,18.90
2019-02-16T22:16:17.924Z,18.20
2019-02-16T22:18:45.534Z,18.30
2019-02-16T22:21:13.293Z,18.30
2019-02-16T22:23:40.959Z,18.30
2019-02-16T22:26:08.564Z,18.20
2019-02-16T22:28:36.294Z,18.00
2019-02-16T22:31:03.882Z,18.60
2019-02-16T22:33:31.492Z,18.00
2019-02-16T22:35:59.160Z,18.70
2019-02-16T22:38:26.754Z,18.30
2019-02-16T22:40:54.350Z,18.00
2019-02-16T22:43:22.000Z,17.90
2019-02-16T22:45:49.627Z,17.80
2019-02-16T22:48:17.205Z,17.80
2019-02-16T22:50:44.860Z,17.80
2019-02-16T22:53:12.474Z,17.90
2019-02-16T22:55:40.135Z,17.90
2019-02-16T22:58:07.732Z,17.80
2019-02-16T23:00:37.067Z,17.80
2019-02-16T23:03:05.323Z,17.80
2019-02-16T23:05:32.960Z,17.80
2019-02-16T23:08:00.602Z,17.70
2019-02-16T23:10:28.244Z,18.90
2019-02-16T23:12:55.862Z,19.50
2019-02-16T23:15:23.507Z,19.90
2019-02-16T23:17:51.097Z,20.30
2019-02-16T23:20:18.685Z,20.70
2019-02-16T23:22:46.396Z,20.80
2019-02-16T23:25:14.080Z,21.00
2019-02-16T23:27:41.835Z,21.20
2019-02-16T23:30:10.120Z,21.40
2019-02-16T23:32:37.839Z,21.40
2019-02-16T23:35:06.403Z,21.40
2019-02-16T23:37:34.041Z,21.50
2019-02-16T23:40:01.851Z,21.50
2019-02-16T23:42:29.461Z,21.80
2019-02-16T23:44:57.133Z,21.90
2019-02-16T23:47:24.793Z,22.10
2019-02-16T23:50:00.170Z,22.20
2019-02-16T23:52:27.935Z,22.20
2019-02-16T23:54:55.560Z,22.40
2019-02-16T23:57:23.286Z,22.60
2019-02-16T23:59:51.013Z,22.70
